sensor_id;sensor_type;location;lat;lon;timestamp;P1;durP1;ratioP1;P2;durP2;ratioP2
5349;SDS011;2697;42.144;24.794;2023-12-07T00:01:43;50.77;;;22.30;;
5349;SDS011;2697;42.144;24.794;2023-12-07T00:04:08;57.50;;;21.57;;
5349;SDS011;2697;42.144;24.794;2023-12-07T00:06:34;60.17;;;21.80;;
5349;SDS011;2697;42.144;24.794;2023-12-07T00:08:59;57.77;;;22.07;;
5349;SDS011;2697;42.144;24.794;2023-12-07T00:11:26;62.23;;;20.73;;
5349;SDS011;2697;42.144;24.794;2023-12-07T00:13:51;66.70;;;21.90;;
5349;SDS011;2697;42.144;24.794;2023-12-07T00:16:17;57.90;;;19.67;;
5349;SDS011;2697;42.144;24.794;2023-12-07T00:18:42;51.67;;;20.13;;
5349;SDS011;2697;42.144;24.794;2023-12-07T00:21:08;52.27;;;20.97;;
5349;SDS011;2697;42.144;24.794;2023-12-07T00:23:34;57.70;;;21.43;;
5349;SDS011;2697;42.144;24.794;2023-12-07T00:25:59;53.63;;;19.90;;
5349;SDS011;2697;42.144;24.794;2023-12-07T00:28:24;49.50;;;21.50;;
5349;SDS011;2697;42.144;24.794;2023-12-07T00:30:50;48.60;;;20.50;;
5349;SDS011;2697;42.144;24.794;2023-12-07T00:33:15;39.53;;;18.83;;
5349;SDS011;2697;42.144;24.794;2023-12-07T00:35:42;53.50;;;20.63;;
5349;SDS011;2697;42.144;24.794;2023-12-07T00:38:07;60.70;;;21.10;;
5349;SDS011;2697;42.144;24.794;2023-12-07T00:40:33;54.53;;;20.93;;
5349;SDS011;2697;42.144;24.794;2023-12-07T00:43:01;53.43;;;19.13;;
5349;SDS011;2697;42.144;24.794;2023-12-07T00:45:27;41.63;;;18.90;;
5349;SDS011;2697;42.144;24.794;2023-12-07T00:47:52;51.33;;;19.50;;
5349;SDS011;2697;42.144;24.794;2023-12-07T00:50:18;54.70;;;20.50;;
5349;SDS011;2697;42.144;24.794;2023-12-07T00:52:43;46.20;;;19.77;;
5349;SDS011;2697;42.144;24.794;2023-12-07T00:55:08;51.13;;;19.60;;
5349;SDS011;2697;42.144;24.794;2023-12-07T00:57:34;48.23;;;19.73;;
5349;SDS011;2697;42.144;24.794;2023-12-07T00:59:59;46.13;;;18.63;;
5349;SDS011;2697;42.144;24.794;2023-12-07T01:02:25;43.87;;;17.50;;
5349;SDS011;2697;42.144;24.794;2023-12-07T01:04:50;53.00;;;21.13;;
5349;SDS011;2697;42.144;24.794;2023-12-07T01:07:15;42.40;;;17.30;;
5349;SDS011;2697;42.144;24.794;2023-12-07T01:09:41;50.97;;;19.17;;
5349;SDS011;2697;42.144;24.794;2023-12-07T01:12:06;52.17;;;18.50;;
5349;SDS011;2697;42.144;24.794;2023-12-07T01:14:32;54.50;;;19.50;;
5349;SDS011;2697;42.144;24.794;2023-12-07T01:16:57;49.27;;;20.47;;
5349;SDS011;2697;42.144;24.794;2023-12-07T01:19:23;49.50;;;20.43;;
5349;SDS011;2697;42.144;24.794;2023-12-07T01:21:50;56.43;;;20.90;;
5349;SDS011;2697;42.144;24.794;2023-12-07T01:24:15;53.90;;;20.67;;
5349;SDS011;2697;42.144;24.794;2023-12-07T01:26:40;52.67;;;20.50;;
5349;SDS011;2697;42.144;24.794;2023-12-07T01:29:06;51.20;;;21.00;;
5349;SDS011;2697;42.144;24.794;2023-12-07T01:31:31;44.00;;;20.00;;
5349;SDS011;2697;42.144;24.794;2023-12-07T01:33:57;51.37;;;19.47;;
5349;SDS011;2697;42.144;24.794;2023-12-07T01:36:22;45.63;;;19.90;;
5349;SDS011;2697;42.144;24.794;2023-12-07T01:38:47;53.90;;;19.30;;
5349;SDS011;2697;42.144;24.794;2023-12-07T01:41:13;53.47;;;21.23;;
5349;SDS011;2697;42.144;24.794;2023-12-07T01:43:44;53.60;;;20.50;;
5349;SDS011;2697;42.144;24.794;2023-12-07T01:46:10;49.00;;;19.50;;
5349;SDS011;2697;42.144;24.794;2023-12-07T01:48:36;51.63;;;20.83;;
5349;SDS011;2697;42.144;24.794;2023-12-07T01:51:01;51.47;;;22.67;;
5349;SDS011;2697;42.144;24.794;2023-12-07T01:53:27;56.63;;;21.40;;
5349;SDS011;2697;42.144;24.794;2023-12-07T01:55:53;55.20;;;19.27;;
5349;SDS011;2697;42.144;24.794;2023-12-07T01:58:19;59.27;;;23.07;;
5349;SDS011;2697;42.144;24.794;2023-12-07T02:00:46;62.43;;;20.43;;
5349;SDS011;2697;42.144;24.794;2023-12-07T02:03:12;63.93;;;23.10;;
5349;SDS011;2697;42.144;24.794;2023-12-07T02:05:41;52.70;;;20.03;;
5349;SDS011;2697;42.144;24.794;2023-12-07T02:08:11;58.57;;;21.47;;
5349;SDS011;2697;42.144;24.794;2023-12-07T02:10:36;62.80;;;21.90;;
5349;SDS011;2697;42.144;24.794;2023-12-07T02:13:02;48.57;;;21.17;;
5349;SDS011;2697;42.144;24.794;2023-12-07T02:15:28;58.10;;;22.47;;
5349;SDS011;2697;42.144;24.794;2023-12-07T02:23:29;62.57;;;23.37;;
5349;SDS011;2697;42.144;24.794;2023-12-07T02:25:57;59.27;;;21.70;;
5349;SDS011;2697;42.144;24.794;2023-12-07T02:28:46;64.40;;;24.33;;
5349;SDS011;2697;42.144;24.794;2023-12-07T02:31:11;54.97;;;20.70;;
5349;SDS011;2697;42.144;24.794;2023-12-07T02:33:37;69.97;;;23.93;;
5349;SDS011;2697;42.144;24.794;2023-12-07T02:36:02;72.50;;;22.43;;
5349;SDS011;2697;42.144;24.794;2023-12-07T02:38:28;60.83;;;24.87;;
5349;SDS011;2697;42.144;24.794;2023-12-07T02:40:54;72.37;;;25.20;;
5349;SDS011;2697;42.144;24.794;2023-12-07T02:43:20;70.03;;;26.63;;
5349;SDS011;2697;42.144;24.794;2023-12-07T02:45:47;62.93;;;23.27;;
5349;SDS011;2697;42.144;24.794;2023-12-07T02:48:13;64.73;;;24.27;;
5349;SDS011;2697;42.144;24.794;2023-12-07T02:50:38;64.53;;;22.63;;
5349;SDS011;2697;42.144;24.794;2023-12-07T02:53:04;85.23;;;31.23;;
5349;SDS011;2697;42.144;24.794;2023-12-07T02:55:29;77.07;;;26.10;;
5349;SDS011;2697;42.144;24.794;2023-12-07T02:57:54;74.37;;;26.00;;
5349;SDS011;2697;42.144;24.794;2023-12-07T03:00:20;63.93;;;26.40;;
5349;SDS011;2697;42.144;24.794;2023-12-07T03:02:46;70.93;;;28.30;;
5349;SDS011;2697;42.144;24.794;2023-12-07T03:05:12;73.70;;;27.27;;
5349;SDS011;2697;42.144;24.794;2023-12-07T03:07:38;75.50;;;28.43;;
5349;SDS011;2697;42.144;24.794;2023-12-07T03:10:03;79.43;;;27.87;;
5349;SDS011;2697;42.144;24.794;2023-12-07T03:12:29;75.57;;;28.97;;
5349;SDS011;2697;42.144;24.794;2023-12-07T03:14:55;81.77;;;27.00;;
5349;SDS011;2697;42.144;24.794;2023-12-07T03:17:20;75.93;;;29.10;;
5349;SDS011;2697;42.144;24.794;2023-12-07T03:19:45;78.73;;;31.10;;
5349;SDS011;2697;42.144;24.794;2023-12-07T03:22:11;70.23;;;28.33;;
5349;SDS011;2697;42.144;24.794;2023-12-07T03:24:38;83.93;;;30.33;;
5349;SDS011;2697;42.144;24.794;2023-12-07T03:27:05;74.40;;;29.20;;
5349;SDS011;2697;42.144;24.794;2023-12-07T03:29:31;81.63;;;29.37;;
5349;SDS011;2697;42.144;24.794;2023-12-07T03:31:57;72.67;;;28.83;;
5349;SDS011;2697;42.144;24.794;2023-12-07T03:34:23;75.57;;;26.60;;
5349;SDS011;2697;42.144;24.794;2023-12-07T03:36:48;90.47;;;30.87;;
5349;SDS011;2697;42.144;24.794;2023-12-07T03:39:14;76.83;;;29.50;;
5349;SDS011;2697;42.144;24.794;2023-12-07T03:41:40;90.20;;;31.67;;
5349;SDS011;2697;42.144;24.794;2023-12-07T03:44:06;82.50;;;30.23;;
5349;SDS011;2697;42.144;24.794;2023-12-07T03:46:32;80.10;;;31.10;;
5349;SDS011;2697;42.144;24.794;2023-12-07T03:48:57;86.70;;;31.20;;
5349;SDS011;2697;42.144;24.794;2023-12-07T03:51:25;92.13;;;30.57;;
5349;SDS011;2697;42.144;24.794;2023-12-07T03:53:51;83.20;;;31.50;;
5349;SDS011;2697;42.144;24.794;2023-12-07T03:56:26;92.90;;;31.40;;
5349;SDS011;2697;42.144;24.794;2023-12-07T03:58:53;93.33;;;29.60;;
5349;SDS011;2697;42.144;24.794;2023-12-07T04:01:25;81.57;;;31.40;;
5349;SDS011;2697;42.144;24.794;2023-12-07T04:03:52;113.63;;;30.73;;
5349;SDS011;2697;42.144;24.794;2023-12-07T04:06:19;102.70;;;30.73;;
5349;SDS011;2697;42.144;24.794;2023-12-07T04:08:45;101.60;;;32.30;;
5349;SDS011;2697;42.144;24.794;2023-12-07T04:11:11;84.57;;;27.97;;
5349;SDS011;2697;42.144;24.794;2023-12-07T04:13:37;104.97;;;31.60;;
5349;SDS011;2697;42.144;24.794;2023-12-07T04:16:02;95.13;;;30.33;;
5349;SDS011;2697;42.144;24.794;2023-12-07T04:18:28;103.97;;;32.80;;
5349;SDS011;2697;42.144;24.794;2023-12-07T04:20:54;91.63;;;32.60;;
5349;SDS011;2697;42.144;24.794;2023-12-07T04:23:19;97.27;;;29.77;;
5349;SDS011;2697;42.144;24.794;2023-12-07T04:25:44;99.43;;;32.47;;
5349;SDS011;2697;42.144;24.794;2023-12-07T04:28:10;92.00;;;31.37;;
5349;SDS011;2697;42.144;24.794;2023-12-07T04:30:35;114.20;;;36.87;;
5349;SDS011;2697;42.144;24.794;2023-12-07T04:33:01;109.07;;;36.10;;
5349;SDS011;2697;42.144;24.794;2023-12-07T04:35:26;90.67;;;30.60;;
5349;SDS011;2697;42.144;24.794;2023-12-07T04:37:53;88.50;;;30.93;;
5349;SDS011;2697;42.144;24.794;2023-12-07T04:40:19;82.47;;;31.20;;
5349;SDS011;2697;42.144;24.794;2023-12-07T04:42:44;89.93;;;31.43;;
5349;SDS011;2697;42.144;24.794;2023-12-07T04:45:09;88.60;;;32.43;;
5349;SDS011;2697;42.144;24.794;2023-12-07T04:47:35;86.33;;;31.57;;
5349;SDS011;2697;42.144;24.794;2023-12-07T04:50:00;95.43;;;31.80;;
5349;SDS011;2697;42.144;24.794;2023-12-07T04:52:26;81.37;;;31.03;;
5349;SDS011;2697;42.144;24.794;2023-12-07T04:54:51;91.93;;;30.00;;
5349;SDS011;2697;42.144;24.794;2023-12-07T04:57:16;85.87;;;30.90;;
5349;SDS011;2697;42.144;24.794;2023-12-07T04:59:42;99.43;;;29.97;;
5349;SDS011;2697;42.144;24.794;2023-12-07T05:02:12;106.20;;;35.37;;
5349;SDS011;2697;42.144;24.794;2023-12-07T05:04:40;103.33;;;31.53;;
5349;SDS011;2697;42.144;24.794;2023-12-07T05:07:06;96.13;;;30.90;;
5349;SDS011;2697;42.144;24.794;2023-12-07T05:09:31;98.27;;;33.23;;
5349;SDS011;2697;42.144;24.794;2023-12-07T05:11:57;103.20;;;30.77;;
5349;SDS011;2697;42.144;24.794;2023-12-07T05:14:23;99.97;;;31.60;;
5349;SDS011;2697;42.144;24.794;2023-12-07T05:16:48;100.43;;;33.03;;
5349;SDS011;2697;42.144;24.794;2023-12-07T05:19:17;115.27;;;33.90;;
5349;SDS011;2697;42.144;24.794;2023-12-07T05:21:46;119.27;;;34.77;;
5349;SDS011;2697;42.144;24.794;2023-12-07T05:24:12;92.77;;;31.27;;
5349;SDS011;2697;42.144;24.794;2023-12-07T05:26:38;91.57;;;31.83;;
5349;SDS011;2697;42.144;24.794;2023-12-07T05:29:03;95.50;;;32.23;;
5349;SDS011;2697;42.144;24.794;2023-12-07T05:31:28;102.33;;;35.17;;
5349;SDS011;2697;42.144;24.794;2023-12-07T05:33:55;114.80;;;34.80;;
5349;SDS011;2697;42.144;24.794;2023-12-07T05:36:20;103.33;;;32.47;;
5349;SDS011;2697;42.144;24.794;2023-12-07T05:38:46;102.00;;;32.87;;
5349;SDS011;2697;42.144;24.794;2023-12-07T05:41:11;80.70;;;29.27;;
5349;SDS011;2697;42.144;24.794;2023-12-07T05:43:40;89.60;;;29.17;;
5349;SDS011;2697;42.144;24.794;2023-12-07T05:46:06;106.03;;;35.03;;
5349;SDS011;2697;42.144;24.794;2023-12-07T05:48:32;99.47;;;34.07;;
5349;SDS011;2697;42.144;24.794;2023-12-07T05:50:57;91.53;;;32.97;;
5349;SDS011;2697;42.144;24.794;2023-12-07T05:53:23;97.07;;;34.27;;
5349;SDS011;2697;42.144;24.794;2023-12-07T05:55:49;92.50;;;32.80;;
5349;SDS011;2697;42.144;24.794;2023-12-07T05:58:15;100.10;;;32.43;;
5349;SDS011;2697;42.144;24.794;2023-12-07T06:00:42;99.63;;;36.07;;
5349;SDS011;2697;42.144;24.794;2023-12-07T06:03:08;107.33;;;37.97;;
5349;SDS011;2697;42.144;24.794;2023-12-07T06:05:37;105.80;;;37.60;;
5349;SDS011;2697;42.144;24.794;2023-12-07T06:08:02;126.57;;;39.43;;
5349;SDS011;2697;42.144;24.794;2023-12-07T06:10:29;106.30;;;38.10;;
5349;SDS011;2697;42.144;24.794;2023-12-07T06:12:54;114.07;;;37.93;;
5349;SDS011;2697;42.144;24.794;2023-12-07T06:15:21;109.40;;;38.60;;
5349;SDS011;2697;42.144;24.794;2023-12-07T06:17:47;122.83;;;42.00;;
5349;SDS011;2697;42.144;24.794;2023-12-07T06:20:12;111.67;;;41.17;;
5349;SDS011;2697;42.144;24.794;2023-12-07T06:22:38;124.73;;;44.90;;
5349;SDS011;2697;42.144;24.794;2023-12-07T06:25:03;145.50;;;51.67;;
5349;SDS011;2697;42.144;24.794;2023-12-07T06:27:29;123.10;;;46.53;;
5349;SDS011;2697;42.144;24.794;2023-12-07T06:29:54;128.20;;;48.10;;
5349;SDS011;2697;42.144;24.794;2023-12-07T06:32:20;121.83;;;48.87;;
5349;SDS011;2697;42.144;24.794;2023-12-07T06:34:45;144.83;;;52.77;;
5349;SDS011;2697;42.144;24.794;2023-12-07T06:37:11;179.53;;;63.10;;
5349;SDS011;2697;42.144;24.794;2023-12-07T06:39:36;268.67;;;100.83;;
5349;SDS011;2697;42.144;24.794;2023-12-07T06:42:02;260.13;;;97.43;;
5349;SDS011;2697;42.144;24.794;2023-12-07T06:44:27;269.67;;;98.53;;
5349;SDS011;2697;42.144;24.794;2023-12-07T06:46:53;288.20;;;100.27;;
5349;SDS011;2697;42.144;24.794;2023-12-07T06:49:18;285.17;;;100.40;;
5349;SDS011;2697;42.144;24.794;2023-12-07T06:51:44;345.00;;;138.37;;
5349;SDS011;2697;42.144;24.794;2023-12-07T06:54:09;282.70;;;116.93;;
5349;SDS011;2697;42.144;24.794;2023-12-07T06:56:35;262.23;;;103.37;;
5349;SDS011;2697;42.144;24.794;2023-12-07T06:59:00;270.30;;;110.00;;
5349;SDS011;2697;42.144;24.794;2023-12-07T07:01:26;131.73;;;53.60;;
5349;SDS011;2697;42.144;24.794;2023-12-07T07:03:51;147.47;;;63.17;;
5349;SDS011;2697;42.144;24.794;2023-12-07T07:06:17;162.53;;;64.33;;
5349;SDS011;2697;42.144;24.794;2023-12-07T07:08:42;127.37;;;49.27;;
5349;SDS011;2697;42.144;24.794;2023-12-07T07:11:12;149.67;;;54.97;;
5349;SDS011;2697;42.144;24.794;2023-12-07T07:13:39;158.43;;;65.07;;
5349;SDS011;2697;42.144;24.794;2023-12-07T07:16:04;200.93;;;74.13;;
5349;SDS011;2697;42.144;24.794;2023-12-07T07:18:30;177.03;;;74.37;;
5349;SDS011;2697;42.144;24.794;2023-12-07T07:20:55;211.13;;;87.17;;
5349;SDS011;2697;42.144;24.794;2023-12-07T07:23:20;238.60;;;93.27;;
5349;SDS011;2697;42.144;24.794;2023-12-07T07:25:46;257.50;;;92.80;;
5349;SDS011;2697;42.144;24.794;2023-12-07T07:28:11;228.93;;;94.13;;
5349;SDS011;2697;42.144;24.794;2023-12-07T07:30:37;184.90;;;75.97;;
5349;SDS011;2697;42.144;24.794;2023-12-07T07:33:03;185.63;;;65.33;;
5349;SDS011;2697;42.144;24.794;2023-12-07T07:35:29;163.70;;;66.83;;
5349;SDS011;2697;42.144;24.794;2023-12-07T07:37:54;164.37;;;70.50;;
5349;SDS011;2697;42.144;24.794;2023-12-07T07:40:20;174.83;;;68.30;;
5349;SDS011;2697;42.144;24.794;2023-12-07T07:42:45;200.27;;;82.80;;
5349;SDS011;2697;42.144;24.794;2023-12-07T07:45:11;188.97;;;73.40;;
5349;SDS011;2697;42.144;24.794;2023-12-07T07:47:36;146.07;;;62.20;;
5349;SDS011;2697;42.144;24.794;2023-12-07T07:50:02;129.27;;;55.77;;
5349;SDS011;2697;42.144;24.794;2023-12-07T07:52:31;124.47;;;51.03;;
5349;SDS011;2697;42.144;24.794;2023-12-07T07:54:57;113.23;;;51.10;;
5349;SDS011;2697;42.144;24.794;2023-12-07T07:57:23;124.07;;;55.00;;
5349;SDS011;2697;42.144;24.794;2023-12-07T07:59:48;108.53;;;49.30;;
5349;SDS011;2697;42.144;24.794;2023-12-07T08:02:13;99.53;;;49.10;;
5349;SDS011;2697;42.144;24.794;2023-12-07T08:04:39;112.33;;;49.27;;
5349;SDS011;2697;42.144;24.794;2023-12-07T08:07:04;108.90;;;50.43;;
5349;SDS011;2697;42.144;24.794;2023-12-07T08:09:30;109.60;;;48.20;;
5349;SDS011;2697;42.144;24.794;2023-12-07T08:11:55;126.20;;;52.50;;
5349;SDS011;2697;42.144;24.794;2023-12-07T08:14:20;142.17;;;55.33;;
5349;SDS011;2697;42.144;24.794;2023-12-07T08:16:46;167.33;;;69.53;;
5349;SDS011;2697;42.144;24.794;2023-12-07T08:19:12;201.90;;;68.80;;
5349;SDS011;2697;42.144;24.794;2023-12-07T08:21:37;186.43;;;75.40;;
5349;SDS011;2697;42.144;24.794;2023-12-07T08:24:03;191.57;;;74.60;;
5349;SDS011;2697;42.144;24.794;2023-12-07T08:26:30;170.23;;;59.37;;
5349;SDS011;2697;42.144;24.794;2023-12-07T08:28:56;176.63;;;64.57;;
5349;SDS011;2697;42.144;24.794;2023-12-07T08:31:21;174.03;;;70.13;;
5349;SDS011;2697;42.144;24.794;2023-12-07T08:33:49;163.27;;;63.03;;
5349;SDS011;2697;42.144;24.794;2023-12-07T08:36:15;157.13;;;61.63;;
5349;SDS011;2697;42.144;24.794;2023-12-07T08:38:41;175.13;;;62.27;;
5349;SDS011;2697;42.144;24.794;2023-12-07T08:41:07;168.97;;;54.53;;
5349;SDS011;2697;42.144;24.794;2023-12-07T08:43:32;144.57;;;53.50;;
5349;SDS011;2697;42.144;24.794;2023-12-07T08:45:58;150.60;;;57.83;;
5349;SDS011;2697;42.144;24.794;2023-12-07T08:48:23;130.40;;;55.93;;
5349;SDS011;2697;42.144;24.794;2023-12-07T08:50:48;156.23;;;58.00;;
5349;SDS011;2697;42.144;24.794;2023-12-07T08:53:14;166.97;;;64.17;;
5349;SDS011;2697;42.144;24.794;2023-12-07T08:55:39;150.17;;;59.00;;
5349;SDS011;2697;42.144;24.794;2023-12-07T08:58:05;149.73;;;61.63;;
5349;SDS011;2697;42.144;24.794;2023-12-07T09:00:31;131.90;;;56.37;;
5349;SDS011;2697;42.144;24.794;2023-12-07T09:02:57;128.97;;;57.60;;
5349;SDS011;2697;42.144;24.794;2023-12-07T09:05:22;144.37;;;58.03;;
5349;SDS011;2697;42.144;24.794;2023-12-07T09:07:48;119.27;;;52.20;;
5349;SDS011;2697;42.144;24.794;2023-12-07T09:10:13;116.93;;;50.13;;
5349;SDS011;2697;42.144;24.794;2023-12-07T09:12:39;128.80;;;49.77;;
5349;SDS011;2697;42.144;24.794;2023-12-07T09:15:05;90.80;;;45.80;;
5349;SDS011;2697;42.144;24.794;2023-12-07T09:17:32;92.43;;;42.30;;
5349;SDS011;2697;42.144;24.794;2023-12-07T09:19:57;95.27;;;45.60;;
5349;SDS011;2697;42.144;24.794;2023-12-07T09:22:23;91.23;;;42.77;;
5349;SDS011;2697;42.144;24.794;2023-12-07T09:24:48;86.53;;;45.03;;
5349;SDS011;2697;42.144;24.794;2023-12-07T09:27:13;86.93;;;41.20;;
5349;SDS011;2697;42.144;24.794;2023-12-07T09:29:39;92.70;;;44.77;;
5349;SDS011;2697;42.144;24.794;2023-12-07T09:32:05;92.53;;;43.10;;
5349;SDS011;2697;42.144;24.794;2023-12-07T09:34:31;83.73;;;43.40;;
5349;SDS011;2697;42.144;24.794;2023-12-07T09:37:09;105.20;;;49.90;;
5349;SDS011;2697;42.144;24.794;2023-12-07T09:39:35;105.27;;;48.73;;
5349;SDS011;2697;42.144;24.794;2023-12-07T09:42:01;113.00;;;54.20;;
5349;SDS011;2697;42.144;24.794;2023-12-07T09:44:27;97.57;;;44.87;;
5349;SDS011;2697;42.144;24.794;2023-12-07T09:46:52;105.73;;;49.47;;
5349;SDS011;2697;42.144;24.794;2023-12-07T09:49:18;117.70;;;54.50;;
5349;SDS011;2697;42.144;24.794;2023-12-07T09:51:44;117.30;;;55.63;;
5349;SDS011;2697;42.144;24.794;2023-12-07T09:54:11;137.37;;;59.87;;
5349;SDS011;2697;42.144;24.794;2023-12-07T09:56:37;126.73;;;54.33;;
5349;SDS011;2697;42.144;24.794;2023-12-07T09:59:02;143.33;;;54.00;;
5349;SDS011;2697;42.144;24.794;2023-12-07T10:01:29;73.30;;;33.13;;
5349;SDS011;2697;42.144;24.794;2023-12-07T10:06:51;40.73;;;19.93;;
5349;SDS011;2697;42.144;24.794;2023-12-07T10:09:17;41.60;;;19.03;;
5349;SDS011;2697;42.144;24.794;2023-12-07T10:11:49;36.33;;;18.37;;
5349;SDS011;2697;42.144;24.794;2023-12-07T10:14:15;43.37;;;19.70;;
5349;SDS011;2697;42.144;24.794;2023-12-07T10:16:53;48.30;;;20.47;;
5349;SDS011;2697;42.144;24.794;2023-12-07T10:19:22;54.10;;;19.57;;
5349;SDS011;2697;42.144;24.794;2023-12-07T10:21:48;56.13;;;27.00;;
5349;SDS011;2697;42.144;24.794;2023-12-07T10:24:20;52.70;;;25.57;;
5349;SDS011;2697;42.144;24.794;2023-12-07T10:26:47;61.00;;;28.57;;
5349;SDS011;2697;42.144;24.794;2023-12-07T10:29:13;61.03;;;29.23;;
5349;SDS011;2697;42.144;24.794;2023-12-07T10:31:39;47.07;;;27.10;;
5349;SDS011;2697;42.144;24.794;2023-12-07T10:34:05;57.27;;;26.30;;
5349;SDS011;2697;42.144;24.794;2023-12-07T10:36:30;57.33;;;28.90;;
5349;SDS011;2697;42.144;24.794;2023-12-07T10:38:57;52.07;;;27.00;;
5349;SDS011;2697;42.144;24.794;2023-12-07T10:41:24;46.37;;;23.43;;
5349;SDS011;2697;42.144;24.794;2023-12-07T10:44:00;37.93;;;17.73;;
5349;SDS011;2697;42.144;24.794;2023-12-07T10:46:26;33.90;;;17.10;;
5349;SDS011;2697;42.144;24.794;2023-12-07T10:48:59;28.63;;;14.57;;
5349;SDS011;2697;42.144;24.794;2023-12-07T10:51:40;31.43;;;16.10;;
5349;SDS011;2697;42.144;24.794;2023-12-07T10:54:08;31.17;;;14.90;;
5349;SDS011;2697;42.144;24.794;2023-12-07T10:56:40;29.87;;;15.73;;
5349;SDS011;2697;42.144;24.794;2023-12-07T10:59:09;29.13;;;13.77;;
5349;SDS011;2697;42.144;24.794;2023-12-07T11:01:39;33.90;;;13.00;;
5349;SDS011;2697;42.144;24.794;2023-12-07T11:04:06;21.97;;;12.00;;
5349;SDS011;2697;42.144;24.794;2023-12-07T11:06:34;21.87;;;12.00;;
5349;SDS011;2697;42.144;24.794;2023-12-07T11:09:02;25.23;;;11.77;;
5349;SDS011;2697;42.144;24.794;2023-12-07T11:14:07;22.77;;;12.63;;
5349;SDS011;2697;42.144;24.794;2023-12-07T11:16:39;23.17;;;12.30;;
5349;SDS011;2697;42.144;24.794;2023-12-07T11:19:23;19.93;;;10.37;;
5349;SDS011;2697;42.144;24.794;2023-12-07T11:22:00;23.77;;;12.47;;
5349;SDS011;2697;42.144;24.794;2023-12-07T11:24:26;24.20;;;11.20;;
5349;SDS011;2697;42.144;24.794;2023-12-07T11:26:51;20.80;;;11.70;;
5349;SDS011;2697;42.144;24.794;2023-12-07T11:29:23;24.33;;;12.00;;
5349;SDS011;2697;42.144;24.794;2023-12-07T11:31:50;27.00;;;13.97;;
5349;SDS011;2697;42.144;24.794;2023-12-07T11:37:04;19.93;;;11.07;;
5349;SDS011;2697;42.144;24.794;2023-12-07T11:39:37;18.03;;;10.40;;
5349;SDS011;2697;42.144;24.794;2023-12-07T11:42:14;19.87;;;11.33;;
5349;SDS011;2697;42.144;24.794;2023-12-07T11:44:41;24.70;;;10.93;;
5349;SDS011;2697;42.144;24.794;2023-12-07T11:47:09;31.77;;;11.37;;
5349;SDS011;2697;42.144;24.794;2023-12-07T11:49:35;22.20;;;11.70;;
5349;SDS011;2697;42.144;24.794;2023-12-07T11:52:08;33.27;;;13.00;;
5349;SDS011;2697;42.144;24.794;2023-12-07T11:54:42;28.80;;;13.40;;
5349;SDS011;2697;42.144;24.794;2023-12-07T11:57:09;21.00;;;8.60;;
5349;SDS011;2697;42.144;24.794;2023-12-07T11:59:34;24.27;;;9.80;;
5349;SDS011;2697;42.144;24.794;2023-12-07T12:02:00;27.37;;;12.33;;
5349;SDS011;2697;42.144;24.794;2023-12-07T12:04:27;24.50;;;12.83;;
5349;SDS011;2697;42.144;24.794;2023-12-07T12:06:53;36.60;;;13.93;;
5349;SDS011;2697;42.144;24.794;2023-12-07T12:09:19;33.83;;;13.80;;
5349;SDS011;2697;42.144;24.794;2023-12-07T12:11:45;18.77;;;10.27;;
5349;SDS011;2697;42.144;24.794;2023-12-07T12:14:14;19.10;;;10.80;;
5349;SDS011;2697;42.144;24.794;2023-12-07T12:16:41;24.90;;;11.20;;
5349;SDS011;2697;42.144;24.794;2023-12-07T12:19:15;30.10;;;13.27;;
5349;SDS011;2697;42.144;24.794;2023-12-07T12:21:41;23.70;;;10.90;;
5349;SDS011;2697;42.144;24.794;2023-12-07T12:24:08;26.00;;;12.07;;
5349;SDS011;2697;42.144;24.794;2023-12-07T12:26:34;27.97;;;13.13;;
5349;SDS011;2697;42.144;24.794;2023-12-07T12:29:04;33.70;;;12.67;;
5349;SDS011;2697;42.144;24.794;2023-12-07T12:31:30;24.53;;;11.27;;
5349;SDS011;2697;42.144;24.794;2023-12-07T12:33:56;39.97;;;11.37;;
5349;SDS011;2697;42.144;24.794;2023-12-07T12:36:21;38.93;;;12.37;;
5349;SDS011;2697;42.144;24.794;2023-12-07T12:38:48;22.50;;;11.93;;
5349;SDS011;2697;42.144;24.794;2023-12-07T12:41:18;31.40;;;11.90;;
5349;SDS011;2697;42.144;24.794;2023-12-07T12:43:44;27.83;;;14.13;;
5349;SDS011;2697;42.144;24.794;2023-12-07T12:46:10;32.77;;;13.00;;
5349;SDS011;2697;42.144;24.794;2023-12-07T12:48:36;27.87;;;13.33;;
5349;SDS011;2697;42.144;24.794;2023-12-07T12:51:08;34.63;;;14.03;;
5349;SDS011;2697;42.144;24.794;2023-12-07T12:53:40;35.03;;;14.20;;
5349;SDS011;2697;42.144;24.794;2023-12-07T12:56:10;38.47;;;15.83;;
5349;SDS011;2697;42.144;24.794;2023-12-07T12:58:35;28.03;;;11.43;;
5349;SDS011;2697;42.144;24.794;2023-12-07T13:01:01;24.80;;;11.50;;
5349;SDS011;2697;42.144;24.794;2023-12-07T13:03:28;24.77;;;12.10;;
5349;SDS011;2697;42.144;24.794;2023-12-07T13:05:54;36.90;;;11.77;;
5349;SDS011;2697;42.144;24.794;2023-12-07T13:08:19;37.10;;;13.03;;
5349;SDS011;2697;42.144;24.794;2023-12-07T13:10:45;21.60;;;11.27;;
5349;SDS011;2697;42.144;24.794;2023-12-07T13:13:10;22.07;;;11.77;;
5349;SDS011;2697;42.144;24.794;2023-12-07T13:15:36;17.40;;;10.60;;
5349;SDS011;2697;42.144;24.794;2023-12-07T13:18:02;22.77;;;12.30;;
5349;SDS011;2697;42.144;24.794;2023-12-07T13:20:29;26.07;;;11.67;;
5349;SDS011;2697;42.144;24.794;2023-12-07T13:22:56;25.03;;;12.60;;
5349;SDS011;2697;42.144;24.794;2023-12-07T13:25:22;29.30;;;12.67;;
5349;SDS011;2697;42.144;24.794;2023-12-07T13:27:48;22.50;;;9.90;;
5349;SDS011;2697;42.144;24.794;2023-12-07T13:30:13;27.13;;;10.40;;
5349;SDS011;2697;42.144;24.794;2023-12-07T13:32:38;17.23;;;10.93;;
5349;SDS011;2697;42.144;24.794;2023-12-07T13:35:05;19.97;;;9.70;;
5349;SDS011;2697;42.144;24.794;2023-12-07T13:37:31;21.07;;;10.20;;
5349;SDS011;2697;42.144;24.794;2023-12-07T13:39:57;18.43;;;9.53;;
5349;SDS011;2697;42.144;24.794;2023-12-07T13:42:24;21.33;;;8.43;;
5349;SDS011;2697;42.144;24.794;2023-12-07T13:44:54;17.60;;;8.30;;
5349;SDS011;2697;42.144;24.794;2023-12-07T13:47:22;19.27;;;9.97;;
5349;SDS011;2697;42.144;24.794;2023-12-07T13:49:56;22.80;;;10.30;;
5349;SDS011;2697;42.144;24.794;2023-12-07T13:52:22;19.03;;;9.10;;
5349;SDS011;2697;42.144;24.794;2023-12-07T13:54:48;17.10;;;8.30;;
5349;SDS011;2697;42.144;24.794;2023-12-07T13:57:13;22.90;;;11.20;;
5349;SDS011;2697;42.144;24.794;2023-12-07T13:59:39;18.03;;;9.00;;
5349;SDS011;2697;42.144;24.794;2023-12-07T14:02:05;21.97;;;11.23;;
5349;SDS011;2697;42.144;24.794;2023-12-07T14:04:30;38.03;;;12.07;;
5349;SDS011;2697;42.144;24.794;2023-12-07T14:07:06;31.13;;;14.57;;
5349;SDS011;2697;42.144;24.794;2023-12-07T14:09:36;35.93;;;13.43;;
5349;SDS011;2697;42.144;24.794;2023-12-07T14:12:03;29.53;;;12.00;;
5349;SDS011;2697;42.144;24.794;2023-12-07T14:14:29;48.77;;;13.60;;
5349;SDS011;2697;42.144;24.794;2023-12-07T14:16:54;41.83;;;13.37;;
5349;SDS011;2697;42.144;24.794;2023-12-07T14:19:20;31.53;;;13.83;;
5349;SDS011;2697;42.144;24.794;2023-12-07T14:21:46;34.17;;;14.77;;
5349;SDS011;2697;42.144;24.794;2023-12-07T14:24:12;47.23;;;14.93;;
5349;SDS011;2697;42.144;24.794;2023-12-07T14:26:38;29.27;;;14.83;;
5349;SDS011;2697;42.144;24.794;2023-12-07T14:29:03;35.00;;;16.20;;
5349;SDS011;2697;42.144;24.794;2023-12-07T14:31:28;28.70;;;13.37;;
5349;SDS011;2697;42.144;24.794;2023-12-07T14:33:54;30.97;;;14.70;;
5349;SDS011;2697;42.144;24.794;2023-12-07T14:36:20;41.67;;;14.43;;
5349;SDS011;2697;42.144;24.794;2023-12-07T14:38:45;22.67;;;13.43;;
5349;SDS011;2697;42.144;24.794;2023-12-07T14:41:11;33.50;;;13.87;;